ADDS METAR Data INFO
IDs: Format: Raw Decoded Include TAF

Data at: 1323 UTC 11 Dec 2017

KWDG 111251Z 00000KT 10SM SKC 04/M10 A3016
KWDG 111210Z 00000KT 10SM SKC 05/M09 A3015 RMK FIRST
KWDG 111155Z AUTO 27006KT 10SM CLR 05/M08 A3015 RMK AO2
KWDG 111135Z AUTO 27006KT 10SM CLR 04/M08 A3016 RMK AO2
KWDG 111115Z AUTO 24003KT 10SM CLR 03/M08 A3016 RMK AO2
KWDG 111055Z AUTO 28005KT 10SM CLR 05/M08 A3017 RMK AO2
KWDG 111035Z AUTO 31004KT 10SM CLR 04/M08 A3017 RMK AO2
KWDG 111015Z AUTO 30003KT 10SM CLR 06/M08 A3018 RMK AO2
KWDG 110955Z AUTO 26004KT 10SM CLR 05/M08 A3018 RMK AO2
KWDG 110935Z AUTO 26005KT 10SM CLR 05/M08 A3017 RMK AO2
KWDG 110915Z AUTO 28006KT 10SM CLR 06/M08 A3018 RMK AO2
KWDG 110855Z AUTO 28004KT 10SM CLR 06/M08 A3018 RMK AO2
KWDG 110835Z AUTO 30003KT 10SM CLR 07/M08 A3019 RMK AO2
KWDG 110815Z AUTO 00000KT 10SM CLR 07/M08 A3019 RMK AO2
KWDG 110755Z AUTO 29003KT 10SM CLR 07/M08 A3019 RMK AO2
KWDG 110735Z AUTO 27005KT 10SM CLR 06/M07 A3019 RMK AO2
KWDG 110715Z AUTO 27005KT 10SM CLR 06/M07 A3020 RMK AO2
KWDG 110655Z AUTO 28007KT 10SM CLR 06/M07 A3021 RMK AO2
KWDG 110635Z AUTO 28007KT 10SM CLR 06/M07 A3021 RMK AO2
KWDG 110615Z AUTO 00000KT 10SM CLR 06/M07 A3022 RMK AO2
KWDG 110555Z AUTO 28006KT 10SM CLR 06/M07 A3022 RMK AO2
KWDG 110535Z AUTO 29004KT 10SM CLR 06/M07 A3023 RMK AO2
KWDG 110515Z AUTO 27006KT 10SM CLR 06/M06 A3023 RMK AO2
KWDG 110455Z AUTO 28006KT 10SM CLR 07/M06 A3024 RMK AO2
KWDG 110435Z AUTO 27003KT 10SM CLR 07/M06 A3024 RMK AO2
KWDG 110415Z AUTO 28005KT 10SM CLR 06/M06 A3024 RMK AO2
KWDG 110355Z AUTO 27004KT 10SM CLR 06/M05 A3024 RMK AO2
KWDG 110335Z AUTO 28004KT 10SM CLR 07/M05 A3024 RMK AO2
KWDG 110315Z AUTO 27005KT 10SM CLR 08/M05 A3024 RMK AO2
KWDG 110247Z 00000KT 10SM SKC 09/M05 A3024 RMK LAST
KWDG 110150Z 00000KT 10SM SKC 08/M05 A3023
KWDG 110059Z 25003KT 10SM FEW200 08/M04 A3024
KWDG 102350Z 26004KT 10SM FEW200 127/M06 A3023
KWDG 102259Z 26005KT 10SM SCT200 17/M05 A3023
KWDG 102047Z 31013G18KT 10SM FEW200 20/M05 A3023
KWDG 101945Z 30012G20KT 10SM SKC 19/M06 A3024
KWDG 101845Z 27016KT 10SM SKC 18/M06 A3026
KWDG 101750Z 27011KT 10SM SKC 16/M07 A3029
KWDG 101645Z 30015KT 10SM SKC 13/M07 A3029
KWDG 101546Z 29012KT 10SM SKC 10/M07 A3029
KWDG 101446Z 29012KT 10SM SKC 06/M08 A3028
KWDG 101345Z 29012KT 10SM SKC 04/M08 A3027
KWDG 101245Z 29010KT 10SM SKC 04/M07 A3025
KWDG 101215Z 29011KT 10SM SKC 03/M07 A3025 RMK FIRST
KWDG 101155Z AUTO 29011KT 10SM CLR 02/M06 A3024 RMK AO2
KWDG 101135Z AUTO 29010KT 10SM CLR 01/M06 A3024 RMK AO2
KWDG 101115Z AUTO 29009KT 10SM CLR 01/M06 A3024 RMK AO2
KWDG 101055Z AUTO 28007KT 10SM CLR 01/M06 A3024 RMK AO2
KWDG 101035Z AUTO 27006KT 10SM CLR 02/M05 A3024 RMK AO2
KWDG 101015Z AUTO 26005KT 10SM CLR 01/M06 A3024 RMK AO2
KWDG 100955Z AUTO 25003KT 10SM CLR 01/M06 A3025 RMK AO2
KWDG 100935Z AUTO 00000KT 10SM CLR 01/M06 A3025 RMK AO2
KWDG 100915Z AUTO 00000KT 10SM CLR 01/M05 A3026 RMK AO2
KWDG 100855Z AUTO 28003KT 10SM CLR 01/M05 A3026 RMK AO2
KWDG 100835Z AUTO 28004KT 10SM CLR 00/M05 A3026 RMK AO2
KWDG 100815Z AUTO 27004KT 10SM CLR 00/M05 A3027 RMK AO2
KWDG 100755Z AUTO 27003KT 10SM CLR M01/M05 A3026 RMK AO2
KWDG 100735Z AUTO 00000KT 10SM CLR 00/M04 A3027 RMK AO2
KWDG 100715Z AUTO 26003KT 10SM CLR M01/M04 A3027 RMK AO2
KWDG 100655Z AUTO 00000KT 10SM CLR M02/M05 A3027 RMK AO2
KWDG 100635Z AUTO 00000KT 10SM CLR M02/M05 A3027 RMK AO2
KWDG 100615Z AUTO 00000KT 10SM CLR M02/M05 A3027 RMK AO2
KWDG 100555Z AUTO 00000KT 10SM CLR M02/M05 A3028 RMK AO2
KWDG 100535Z AUTO 00000KT 10SM CLR M02/M05 A3028 RMK AO2
KWDG 100515Z AUTO 00000KT 10SM CLR 00/M04 A3029 RMK AO2
KWDG 100455Z AUTO 00000KT 10SM CLR M01/M05 A3029 RMK AO2
KWDG 100435Z AUTO 00000KT 10SM CLR 00/M03 A3029 RMK AO2
KWDG 100415Z AUTO 00000KT 10SM CLR M02/M04 A3028 RMK AO2
KWDG 100355Z AUTO 00000KT 10SM CLR M01/M05 A3029 RMK AO2
KWDG 100335Z AUTO 00000KT 10SM CLR 00/M05 A3028 RMK AO2
KWDG 100315Z AUTO 00000KT 10SM CLR 00/M04 A3028 RMK AO2
KWDG 100245Z 00000KT 10SM SKC M01/M05 A3028 RMK LAST
KWDG 100145Z 00000KT 10SM SKC 01/M04 A3027